createdAt,value
2023-03-31T00:01:41.542Z,5.10
2023-03-31T00:04:12.938Z,4.93
2023-03-31T00:06:47.575Z,5.75
2023-03-31T00:09:21.586Z,5.68
2023-03-31T00:11:53.750Z,5.30
2023-03-31T00:14:29.504Z,5.40
2023-03-31T00:16:58.888Z,5.28
2023-03-31T00:19:28.715Z,4.75
2023-03-31T00:22:01.754Z,4.28
2023-03-31T00:24:32.829Z,5.28
2023-03-31T00:27:05.857Z,5.33
2023-03-31T00:29:35.601Z,5.88
2023-03-31T00:32:05.023Z,4.93
2023-03-31T00:34:40.560Z,4.20
2023-03-31T00:37:09.754Z,4.45
2023-03-31T00:39:39.893Z,2.72
2023-03-31T00:45:10.398Z,4.10
2023-03-31T00:47:40.144Z,4.25
2023-03-31T00:50:20.158Z,3.25
2023-03-31T00:52:51.498Z,3.75
2023-03-31T00:55:27.501Z,4.65
2023-03-31T00:58:10.876Z,2.20
2023-03-31T01:00:40.895Z,3.97
2023-03-31T01:03:11.832Z,4.40
2023-03-31T01:05:51.952Z,4.30
2023-03-31T01:08:26.825Z,4.00
2023-03-31T01:13:38.277Z,4.45
2023-03-31T01:16:12.145Z,4.00
2023-03-31T01:18:46.103Z,3.75
2023-03-31T01:21:50.883Z,4.10
2023-03-31T01:24:47.478Z,4.47
2023-03-31T01:27:39.109Z,3.30
2023-03-31T01:30:37.737Z,3.50
2023-03-31T01:33:58.858Z,3.55
2023-03-31T01:37:14.595Z,3.50
2023-03-31T01:40:37.076Z,3.63
2023-03-31T01:43:19.470Z,3.60
2023-03-31T01:48:37.195Z,3.13
2023-03-31T01:51:20.510Z,3.20
2023-03-31T01:54:05.810Z,3.80
2023-03-31T01:56:41.634Z,3.53
2023-03-31T01:59:16.182Z,3.45
2023-03-31T02:01:49.852Z,3.53
2023-03-31T02:04:23.812Z,4.00
2023-03-31T02:06:59.568Z,3.97
2023-03-31T02:09:37.108Z,4.18
2023-03-31T02:12:13.158Z,3.97
2023-03-31T02:14:54.138Z,3.70
2023-03-31T02:17:32.282Z,3.55
2023-03-31T02:20:13.276Z,3.55
2023-03-31T02:22:50.294Z,2.40
2023-03-31T02:25:28.566Z,3.88
2023-03-31T02:28:04.798Z,5.70
2023-03-31T02:30:52.753Z,4.15
2023-03-31T02:33:22.131Z,4.15
2023-03-31T02:35:51.574Z,3.05
2023-03-31T02:38:21.217Z,3.97
2023-03-31T02:40:50.345Z,3.28
2023-03-31T02:43:22.301Z,3.60
2023-03-31T02:45:53.231Z,2.92
2023-03-31T02:48:31.646Z,3.65
2023-03-31T02:51:21.405Z,3.17
2023-03-31T02:54:12.139Z,3.30
2023-03-31T02:57:39.064Z,3.60
2023-03-31T03:00:22.853Z,3.53
2023-03-31T03:03:05.320Z,3.20
2023-03-31T03:05:50.574Z,2.90
2023-03-31T03:09:04.728Z,2.42
2023-03-31T03:11:55.029Z,3.20
2023-03-31T03:14:30.674Z,3.20
2023-03-31T03:17:10.893Z,3.72
2023-03-31T03:19:40.080Z,3.13
2023-03-31T03:22:09.500Z,3.05
2023-03-31T03:24:39.615Z,3.42
2023-03-31T03:27:08.840Z,3.08
2023-03-31T03:29:38.379Z,2.97
2023-03-31T03:32:15.037Z,1.90
2023-03-31T03:34:44.349Z,3.38
2023-03-31T03:37:13.676Z,3.13
2023-03-31T03:39:42.944Z,4.50
2023-03-31T03:42:12.001Z,4.30
2023-03-31T03:44:41.472Z,3.95
2023-03-31T03:47:12.668Z,5.57
2023-03-31T03:49:41.936Z,3.13
2023-03-31T03:52:11.479Z,3.15
2023-03-31T03:57:16.312Z,3.75
2023-03-31T03:59:45.598Z,3.35
2023-03-31T04:02:16.891Z,3.55
2023-03-31T04:04:47.456Z,3.85
2023-03-31T04:07:17.460Z,2.70
2023-03-31T04:09:56.632Z,4.47
2023-03-31T04:12:27.098Z,2.42
2023-03-31T04:14:56.231Z,5.38
2023-03-31T04:17:32.372Z,4.72
2023-03-31T04:20:09.437Z,3.97
2023-03-31T04:22:47.393Z,4.22
2023-03-31T04:25:17.002Z,4.32
2023-03-31T04:27:50.295Z,3.67
2023-03-31T04:30:24.494Z,2.78
2023-03-31T04:32:58.024Z,3.17
2023-03-31T04:35:49.313Z,5.20
2023-03-31T04:38:20.408Z,5.43
2023-03-31T04:40:51.430Z,4.53
2023-03-31T04:43:21.903Z,4.47
2023-03-31T04:45:55.670Z,4.97
2023-03-31T04:48:27.045Z,4.20
2023-03-31T04:50:56.342Z,3.67
2023-03-31T04:53:25.760Z,4.53
2023-03-31T04:56:01.414Z,4.07
2023-03-31T04:58:30.779Z,5.50
2023-03-31T05:00:59.963Z,4.07
2023-03-31T05:03:31.308Z,5.35
2023-03-31T05:06:00.523Z,4.93
2023-03-31T05:08:30.000Z,5.90
2023-03-31T05:11:05.916Z,4.63
2023-03-31T05:13:35.068Z,2.55
2023-03-31T05:16:09.703Z,3.45
2023-03-31T05:18:41.160Z,4.15
2023-03-31T05:23:54.141Z,5.53
2023-03-31T05:26:25.045Z,5.72
2023-03-31T05:28:54.502Z,6.22
2023-03-31T05:31:23.947Z,4.63
2023-03-31T05:33:55.342Z,7.30
2023-03-31T05:36:26.807Z,6.57
2023-03-31T05:39:01.207Z,5.82
2023-03-31T05:41:30.564Z,5.88
2023-03-31T05:43:59.732Z,8.30
2023-03-31T05:46:34.498Z,6.88
2023-03-31T05:49:06.015Z,5.75
2023-03-31T05:51:40.411Z,5.00
2023-03-31T05:54:09.683Z,4.40
2023-03-31T05:56:38.941Z,4.15
2023-03-31T05:59:08.177Z,5.10
2023-03-31T06:01:37.514Z,5.18
2023-03-31T06:04:09.069Z,5.65
2023-03-31T06:06:38.545Z,5.30
2023-03-31T06:09:08.501Z,5.03
2023-03-31T06:11:42.856Z,4.97
2023-03-31T06:14:12.039Z,4.90
2023-03-31T06:16:47.709Z,5.15
2023-03-31T06:19:24.891Z,5.47
2023-03-31T06:21:59.244Z,5.22
2023-03-31T06:24:28.571Z,6.35
2023-03-31T06:26:58.392Z,7.22
2023-03-31T06:29:27.616Z,6.40
2023-03-31T06:31:56.902Z,5.03
2023-03-31T06:34:39.939Z,5.47
2023-03-31T06:37:09.137Z,5.32
2023-03-31T06:39:38.273Z,6.20
2023-03-31T06:42:12.668Z,6.93
2023-03-31T06:44:48.396Z,5.70
2023-03-31T06:47:22.782Z,4.55
2023-03-31T06:49:53.999Z,8.00
2023-03-31T06:52:28.273Z,7.40
2023-03-31T06:54:57.577Z,8.45
2023-03-31T06:57:27.136Z,7.28
2023-03-31T06:59:56.784Z,4.53
2023-03-31T07:02:26.163Z,5.65
2023-03-31T07:07:37.255Z,6.20
2023-03-31T07:10:07.295Z,6.72
2023-03-31T07:12:41.621Z,4.30
2023-03-31T07:15:11.985Z,6.22
2023-03-31T07:18:02.272Z,6.63
2023-03-31T07:20:33.908Z,6.28
2023-03-31T07:23:08.238Z,6.57
2023-03-31T07:25:38.282Z,5.38
2023-03-31T07:28:23.602Z,6.88
2023-03-31T07:30:53.165Z,4.00
2023-03-31T07:33:22.387Z,5.20
2023-03-31T07:36:11.032Z,4.90
2023-03-31T07:38:43.003Z,5.55
2023-03-31T07:41:21.597Z,6.85
2023-03-31T07:43:52.259Z,3.35
2023-03-31T07:46:23.726Z,6.10
2023-03-31T07:48:54.099Z,4.95
2023-03-31T07:51:28.732Z,5.95
2023-03-31T07:53:58.021Z,6.28
2023-03-31T07:56:27.874Z,6.60
2023-03-31T07:58:57.874Z,4.57
2023-03-31T08:01:28.510Z,4.07
2023-03-31T08:04:11.222Z,5.47
2023-03-31T08:06:43.740Z,4.05
2023-03-31T08:09:18.077Z,6.63
2023-03-31T08:11:48.175Z,5.45
2023-03-31T08:14:34.216Z,5.22
2023-03-31T08:17:09.560Z,4.80
2023-03-31T08:19:39.148Z,5.20
2023-03-31T08:22:15.454Z,4.38
2023-03-31T08:24:44.807Z,3.85
2023-03-31T08:27:13.976Z,4.72
2023-03-31T08:29:43.226Z,5.28
2023-03-31T08:32:12.491Z,5.75
2023-03-31T08:34:45.599Z,5.85
2023-03-31T08:37:17.311Z,6.00
2023-03-31T08:39:46.696Z,6.35
2023-03-31T08:42:28.023Z,5.00
2023-03-31T08:45:01.848Z,6.10
2023-03-31T08:47:36.439Z,5.65
2023-03-31T08:50:10.029Z,5.82
2023-03-31T08:52:46.109Z,5.10
2023-03-31T08:55:22.350Z,4.57
2023-03-31T08:58:03.531Z,6.57
2023-03-31T09:00:43.253Z,5.75
2023-03-31T09:03:21.681Z,5.63
2023-03-31T09:06:12.608Z,6.22
2023-03-31T09:08:50.148Z,5.65
2023-03-31T09:14:24.894Z,6.00
2023-03-31T09:17:04.824Z,6.45
2023-03-31T09:19:39.348Z,5.43
2023-03-31T09:22:16.224Z,4.90
2023-03-31T09:24:54.194Z,4.47
2023-03-31T09:27:26.754Z,6.53
2023-03-31T09:30:00.367Z,4.78
2023-03-31T09:32:32.618Z,6.20
2023-03-31T09:37:56.836Z,6.70
2023-03-31T09:40:30.464Z,5.32
2023-03-31T09:43:03.293Z,5.57
2023-03-31T09:48:22.322Z,6.63
2023-03-31T09:50:55.469Z,5.50
2023-03-31T09:53:37.074Z,6.38
2023-03-31T09:56:11.323Z,6.22
2023-03-31T09:58:43.615Z,6.65
2023-03-31T10:01:14.895Z,5.40
2023-03-31T10:03:52.290Z,6.95
2023-03-31T10:06:22.460Z,6.88
2023-03-31T10:08:56.136Z,7.43
2023-03-31T10:14:15.717Z,5.68
2023-03-31T10:16:53.124Z,7.88
2023-03-31T10:19:25.108Z,7.03
2023-03-31T10:22:01.238Z,8.70
2023-03-31T10:24:40.683Z,7.53
2023-03-31T10:27:23.017Z,8.20
2023-03-31T10:29:55.192Z,8.35
2023-03-31T10:32:31.715Z,6.75
2023-03-31T10:35:06.321Z,8.13
2023-03-31T10:37:38.937Z,6.70
2023-03-31T10:40:18.128Z,5.38
2023-03-31T10:43:01.099Z,5.70
2023-03-31T10:45:37.802Z,7.10
2023-03-31T10:48:19.693Z,5.93
2023-03-31T10:50:50.858Z,9.13
2023-03-31T10:53:21.859Z,6.78
2023-03-31T10:56:15.834Z,8.30
2023-03-31T10:59:09.885Z,6.28
2023-03-31T11:01:51.806Z,9.63
2023-03-31T11:07:10.363Z,6.97
2023-03-31T11:09:52.108Z,7.80
2023-03-31T11:12:33.520Z,8.45
2023-03-31T11:18:17.300Z,6.50
2023-03-31T11:20:55.890Z,6.55
2023-03-31T11:23:33.748Z,7.20
2023-03-31T11:26:08.004Z,7.60
2023-03-31T11:28:52.556Z,10.27
2023-03-31T11:31:36.459Z,10.23
2023-03-31T11:34:23.972Z,8.15
2023-03-31T11:37:35.283Z,9.18
2023-03-31T11:40:24.565Z,8.38
2023-03-31T11:43:01.185Z,8.77
2023-03-31T11:45:34.864Z,8.60
2023-03-31T11:48:21.880Z,10.40
2023-03-31T11:50:53.390Z,7.53
2023-03-31T11:53:30.543Z,7.78
2023-03-31T11:56:02.020Z,8.10
2023-03-31T11:58:37.429Z,9.55
2023-03-31T12:01:25.555Z,8.35
2023-03-31T12:04:03.714Z,7.60
2023-03-31T12:06:43.725Z,7.63
2023-03-31T12:09:19.385Z,7.85
2023-03-31T12:12:01.116Z,7.07
2023-03-31T12:14:35.342Z,7.53
2023-03-31T12:17:11.234Z,5.85
2023-03-31T12:19:49.737Z,6.68
2023-03-31T12:22:24.277Z,11.07
2023-03-31T12:24:53.980Z,8.80
2023-03-31T12:27:34.314Z,8.15
2023-03-31T12:30:07.024Z,8.35
2023-03-31T12:32:41.493Z,9.52
2023-03-31T12:35:22.136Z,7.68
2023-03-31T12:38:13.050Z,7.50
2023-03-31T12:40:59.443Z,7.85
2023-03-31T12:44:00.776Z,7.38
2023-03-31T12:55:33.692Z,7.60
2023-03-31T12:58:34.681Z,10.30
2023-03-31T13:01:07.663Z,9.77
2023-03-31T13:03:52.050Z,9.07
2023-03-31T13:06:51.507Z,10.23
2023-03-31T13:09:58.084Z,9.23
2023-03-31T13:12:32.833Z,8.45
2023-03-31T13:15:06.837Z,15.38
2023-03-31T13:17:39.418Z,11.15
2023-03-31T13:20:27.394Z,14.02
2023-03-31T13:23:04.323Z,11.80
2023-03-31T13:25:46.813Z,11.25
2023-03-31T13:28:36.583Z,13.65
2023-03-31T13:31:07.060Z,11.45
2023-03-31T13:36:54.521Z,14.98
2023-03-31T13:39:50.281Z,11.60
2023-03-31T13:42:55.309Z,12.07
2023-03-31T13:45:46.786Z,12.52
2023-03-31T13:48:34.284Z,10.27
2023-03-31T13:51:20.128Z,11.60
2023-03-31T13:57:17.772Z,11.52
2023-03-31T14:00:16.827Z,7.47
2023-03-31T14:03:10.181Z,9.25
2023-03-31T14:05:47.376Z,13.02
2023-03-31T14:08:22.084Z,11.77
2023-03-31T14:10:51.361Z,10.30
2023-03-31T14:13:27.578Z,11.30
2023-03-31T14:16:03.302Z,11.50
2023-03-31T14:18:38.746Z,12.00
2023-03-31T14:24:10.971Z,13.43
2023-03-31T14:27:05.052Z,11.40
2023-03-31T14:29:46.912Z,12.15
2023-03-31T14:32:25.394Z,10.13
2023-03-31T14:35:15.256Z,11.20
2023-03-31T14:37:45.471Z,10.80
2023-03-31T14:40:23.470Z,9.60
2023-03-31T14:42:52.838Z,9.68
2023-03-31T14:45:26.236Z,11.85
2023-03-31T14:47:57.017Z,16.08
2023-03-31T14:50:36.187Z,15.60
2023-03-31T14:53:06.013Z,13.63
2023-03-31T14:55:49.754Z,15.82
2023-03-31T14:58:30.144Z,14.07
2023-03-31T15:01:00.341Z,17.88
2023-03-31T15:03:29.671Z,16.00
2023-03-31T15:06:02.963Z,14.38
2023-03-31T15:08:39.897Z,11.20
2023-03-31T15:11:16.015Z,9.02
2023-03-31T15:14:03.410Z,9.20
2023-03-31T15:16:43.517Z,12.70
2023-03-31T15:19:25.592Z,11.75
2023-03-31T15:22:02.517Z,9.40
2023-03-31T15:24:32.961Z,7.45
2023-03-31T15:27:05.813Z,7.70
2023-03-31T15:29:41.209Z,10.80
2023-03-31T15:32:17.269Z,10.38
2023-03-31T15:34:47.944Z,10.52
2023-03-31T15:37:24.491Z,7.70
2023-03-31T15:39:59.058Z,12.93
2023-03-31T15:42:29.409Z,9.18
2023-03-31T15:45:17.964Z,10.55
2023-03-31T15:47:53.513Z,9.82
2023-03-31T15:50:30.636Z,4.55
2023-03-31T15:53:03.586Z,10.70
2023-03-31T15:55:38.955Z,9.63
2023-03-31T15:58:08.425Z,10.80
2023-03-31T16:00:47.650Z,13.63
2023-03-31T16:03:22.825Z,13.80
2023-03-31T16:05:56.692Z,11.88
2023-03-31T16:08:33.491Z,14.48
2023-03-31T16:11:14.219Z,11.68
2023-03-31T16:13:48.725Z,11.63
2023-03-31T16:16:22.290Z,11.13
2023-03-31T16:19:03.758Z,9.63
2023-03-31T16:21:38.361Z,9.43
2023-03-31T16:24:10.246Z,11.43
2023-03-31T16:26:45.420Z,8.32
2023-03-31T16:29:24.730Z,6.60
2023-03-31T16:32:09.868Z,11.50
2023-03-31T16:34:54.266Z,9.77
2023-03-31T16:37:24.371Z,12.90
2023-03-31T16:40:01.605Z,10.32
2023-03-31T16:42:31.212Z,12.65
2023-03-31T16:45:13.617Z,13.50
2023-03-31T16:47:45.874Z,12.48
2023-03-31T16:52:56.071Z,12.88
2023-03-31T16:55:27.621Z,15.65
2023-03-31T16:57:57.043Z,12.18
2023-03-31T17:00:26.653Z,10.98
2023-03-31T17:03:02.455Z,11.55
2023-03-31T17:05:33.599Z,11.02
2023-03-31T17:10:52.748Z,11.82
2023-03-31T17:13:22.511Z,10.88
2023-03-31T17:15:55.862Z,10.95
2023-03-31T17:18:36.028Z,10.23
2023-03-31T17:21:07.793Z,9.40
2023-03-31T17:23:37.562Z,8.52
2023-03-31T17:26:10.534Z,11.02
2023-03-31T17:28:45.070Z,8.45
2023-03-31T17:31:15.201Z,8.80
2023-03-31T17:33:44.505Z,10.80
2023-03-31T17:36:15.152Z,10.73
2023-03-31T17:38:45.205Z,13.83
2023-03-31T17:41:21.628Z,12.60
2023-03-31T17:43:50.875Z,11.27
2023-03-31T17:46:20.365Z,11.45
2023-03-31T17:48:57.957Z,11.15
2023-03-31T17:51:27.490Z,11.63
2023-03-31T17:53:57.137Z,11.15
2023-03-31T17:56:33.778Z,11.95
2023-03-31T17:59:03.647Z,9.80
2023-03-31T18:01:32.879Z,11.20
2023-03-31T18:04:02.969Z,9.63
2023-03-31T18:06:32.855Z,9.93
2023-03-31T18:09:02.322Z,11.23
2023-03-31T18:11:33.808Z,11.27
2023-03-31T18:14:08.297Z,11.10
2023-03-31T18:16:38.052Z,10.35
2023-03-31T18:19:07.388Z,11.15
2023-03-31T18:21:36.938Z,11.45
2023-03-31T18:24:11.570Z,11.43
2023-03-31T18:26:42.853Z,11.15
2023-03-31T18:29:17.614Z,11.93
2023-03-31T18:31:46.871Z,10.40
2023-03-31T18:34:16.357Z,10.82
2023-03-31T18:36:45.888Z,8.43
2023-03-31T18:39:15.257Z,7.10
2023-03-31T18:41:49.705Z,9.60
2023-03-31T18:44:19.151Z,8.90
2023-03-31T18:46:48.359Z,8.10
2023-03-31T18:49:19.767Z,10.32
2023-03-31T18:51:49.128Z,9.48
2023-03-31T18:54:19.028Z,10.52
2023-03-31T18:57:01.233Z,11.90
2023-03-31T18:59:30.805Z,12.93
2023-03-31T19:02:00.297Z,11.88
2023-03-31T19:04:30.098Z,11.18
2023-03-31T19:06:59.395Z,11.02
2023-03-31T19:09:28.698Z,11.30
2023-03-31T19:11:59.898Z,10.90
2023-03-31T19:14:29.967Z,11.38
2023-03-31T19:16:59.524Z,11.65
2023-03-31T19:19:29.853Z,12.35
2023-03-31T19:21:59.270Z,11.88
2023-03-31T19:24:28.749Z,12.23
2023-03-31T19:27:00.010Z,13.02
2023-03-31T19:29:29.968Z,14.10
2023-03-31T19:31:59.277Z,13.00
2023-03-31T19:34:33.949Z,11.90
2023-03-31T19:37:03.874Z,11.02
2023-03-31T19:39:33.348Z,11.77
2023-03-31T19:42:05.769Z,11.75
2023-03-31T19:44:35.074Z,12.40
2023-03-31T19:47:04.700Z,13.63
2023-03-31T19:49:39.272Z,12.65
2023-03-31T19:52:08.490Z,12.82
2023-03-31T19:54:37.840Z,12.73
2023-03-31T19:57:14.557Z,11.80
2023-03-31T19:59:43.931Z,13.27
2023-03-31T20:02:14.267Z,14.18
2023-03-31T20:04:50.023Z,13.65
2023-03-31T20:07:19.439Z,14.40
2023-03-31T20:09:48.697Z,13.93
2023-03-31T20:12:20.597Z,13.93
2023-03-31T20:14:50.116Z,14.98
2023-03-31T20:17:20.286Z,13.88
2023-03-31T20:19:49.658Z,14.77
2023-03-31T20:22:19.121Z,14.35
2023-03-31T20:24:48.463Z,14.18
2023-03-31T20:27:20.230Z,14.27
2023-03-31T20:32:25.980Z,13.95
2023-03-31T20:34:55.266Z,13.10
2023-03-31T20:37:24.817Z,12.55
2023-03-31T20:39:54.228Z,13.30
2023-03-31T20:42:25.380Z,13.40
2023-03-31T20:44:54.767Z,13.73
2023-03-31T20:47:24.474Z,14.00
2023-03-31T20:49:58.765Z,13.75
2023-03-31T20:52:28.169Z,15.27
2023-03-31T20:54:57.480Z,14.23
2023-03-31T20:57:33.827Z,13.98
2023-03-31T21:00:04.014Z,12.88
2023-03-31T21:02:41.534Z,13.23
2023-03-31T21:05:11.604Z,13.20
2023-03-31T21:07:46.080Z,13.85
2023-03-31T21:10:15.354Z,12.70
2023-03-31T21:12:47.111Z,12.40
2023-03-31T21:15:16.767Z,12.32
2023-03-31T21:17:45.892Z,12.38
2023-03-31T21:20:15.402Z,12.75
2023-03-31T21:22:44.597Z,12.77
2023-03-31T21:25:13.924Z,13.13
2023-03-31T21:30:29.384Z,13.57
2023-03-31T21:32:58.734Z,13.25
2023-03-31T21:35:28.402Z,14.25
2023-03-31T21:37:57.743Z,14.65
2023-03-31T21:40:32.016Z,14.05
2023-03-31T21:43:06.802Z,14.07
2023-03-31T21:45:39.071Z,13.27
2023-03-31T21:48:20.356Z,13.82
2023-03-31T21:50:49.564Z,13.15
2023-03-31T21:53:18.787Z,12.27
2023-03-31T21:55:47.927Z,12.93
2023-03-31T21:58:22.430Z,13.30
2023-03-31T22:00:57.297Z,13.02
2023-03-31T22:03:28.802Z,14.45
2023-03-31T22:06:06.558Z,13.85
2023-03-31T22:08:36.513Z,13.82
2023-03-31T22:11:17.008Z,13.95
2023-03-31T22:13:51.381Z,13.77
2023-03-31T22:16:24.822Z,13.35
2023-03-31T22:18:56.798Z,12.73
2023-03-31T22:21:43.107Z,12.85
2023-03-31T22:24:15.542Z,12.77
2023-03-31T22:26:44.773Z,12.48
2023-03-31T22:29:17.039Z,13.30
2023-03-31T22:31:48.725Z,12.98
2023-03-31T22:34:24.163Z,13.20
2023-03-31T22:36:53.490Z,12.80
2023-03-31T22:39:22.918Z,13.65
2023-03-31T22:41:52.508Z,12.82
2023-03-31T22:44:21.797Z,13.50
2023-03-31T22:47:05.014Z,13.73
2023-03-31T22:49:34.435Z,12.50
2023-03-31T22:52:03.870Z,13.25
2023-03-31T22:57:19.901Z,12.93
2023-03-31T22:59:49.207Z,14.00
2023-03-31T23:02:20.492Z,14.18
2023-03-31T23:04:54.770Z,13.32
2023-03-31T23:07:24.031Z,12.80
2023-03-31T23:09:58.263Z,13.02
2023-03-31T23:12:28.223Z,13.50
2023-03-31T23:14:58.074Z,13.63
2023-03-31T23:17:29.457Z,13.88
2023-03-31T23:20:01.594Z,15.93
2023-03-31T23:22:36.712Z,13.48
2023-03-31T23:25:06.500Z,12.32
2023-03-31T23:27:35.826Z,12.13
2023-03-31T23:30:05.796Z,13.50
2023-03-31T23:32:36.904Z,12.38
2023-03-31T23:35:07.645Z,12.38
2023-03-31T23:37:36.982Z,11.90
2023-03-31T23:40:13.211Z,12.77
2023-03-31T23:42:42.625Z,12.00
2023-03-31T23:45:12.946Z,12.45
2023-03-31T23:47:44.125Z,12.95
2023-03-31T23:50:13.461Z,13.40
2023-03-31T23:52:43.600Z,12.80
2023-03-31T23:55:17.799Z,13.57
2023-03-31T23:57:47.008Z,14.73
